Time;durP1;ratioP1;P1;durP2;ratioP2;P2;SDS_P1;SDS_P2;PMS_P1;PMS_P2;Temp;Humidity;BMP_temperature;BMP_pressure;BME280_temperature;BME280_humidity;BME280_pressure;Samples;Min_cycle;Max_cycle;Signal;HPM_P1;HPM_P2
2021/01/14 00:00:27;;;;;;;0.90;0.80;;;21.50;49.40;;;;;;5035599;28;20211;-66
2021/01/14 00:02:52;;;;;;;1.10;0.80;;;21.50;49.40;;;;;;5036852;28;20195;-67
2021/01/14 00:05:19;;;;;;;1.00;0.83;;;21.40;49.30;;;;;;5035745;28;20419;-67
2021/01/14 00:07:44;;;;;;;1.10;0.70;;;21.40;49.30;;;;;;5035373;28;20196;-67
2021/01/14 00:10:11;;;;;;;1.00;0.70;;;21.40;49.30;;;;;;5035860;28;20485;-67
2021/01/14 00:12:41;;;;;;;1.53;0.87;;;21.40;49.40;;;;;;5035600;28;20266;-67
2021/01/14 00:15:08;;;;;;;1.63;1.00;;;21.40;49.30;;;;;;5035862;28;20410;-66
2021/01/14 00:17:34;;;;;;;1.20;0.87;;;21.40;49.30;;;;;;5035291;28;20933;-67
2021/01/14 00:20:00;;;;;;;1.30;1.00;;;21.40;49.30;;;;;;5035605;28;20456;-67
2021/01/14 00:22:26;;;;;;;1.00;0.83;;;21.40;49.30;;;;;;5034347;28;20199;-67
2021/01/14 00:24:52;;;;;;;1.77;0.90;;;21.40;49.30;;;;;;5035670;28;20485;-67
2021/01/14 00:27:17;;;;;;;1.00;0.80;;;21.40;49.30;;;;;;5035613;28;20653;-67
2021/01/14 00:29:43;;;;;;;1.33;0.93;;;21.40;49.30;;;;;;5035578;28;20175;-66
2021/01/14 00:32:09;;;;;;;1.20;0.90;;;21.40;49.30;;;;;;5035230;28;20222;-67
2021/01/14 00:34:34;;;;;;;2.23;0.80;;;21.40;49.30;;;;;;5035317;28;20506;-67
2021/01/14 00:39:44;;;;;;;0.90;0.70;;;21.40;49.40;;;;;;5035583;28;20645;-67
2021/01/14 00:42:16;;;;;;;1.10;0.90;;;21.40;49.40;;;;;;5035067;28;20442;-67
2021/01/14 00:44:42;;;;;;;0.90;0.70;;;21.40;49.40;;;;;;5035394;28;20525;-67
2021/01/14 00:47:07;;;;;;;1.10;0.80;;;21.30;49.40;;;;;;5035322;28;20459;-67
2021/01/14 00:49:33;;;;;;;1.00;0.80;;;21.30;49.40;;;;;;5035939;28;20184;-67
2021/01/14 00:51:58;;;;;;;1.10;0.80;;;21.30;49.40;;;;;;5035043;28;20254;-66
2021/01/14 00:54:24;;;;;;;1.30;0.80;;;21.30;49.40;;;;;;5035158;28;20657;-67
2021/01/14 00:56:49;;;;;;;1.30;0.90;;;21.30;49.40;;;;;;5035374;28;20180;-67
2021/01/14 00:59:15;;;;;;;1.00;0.90;;;21.30;49.40;;;;;;5033677;28;20287;-67
2021/01/14 01:01:41;;;;;;;1.30;1.20;;;21.30;49.40;;;;;;5034966;28;20200;-67
2021/01/14 01:04:08;;;;;;;1.00;0.90;;;21.30;49.40;;;;;;5034936;28;20262;-67
2021/01/14 01:06:38;;;;;;;1.13;0.70;;;21.30;49.40;;;;;;5034931;28;20411;-67
2021/01/14 01:09:06;;;;;;;0.97;0.67;;;21.30;49.40;;;;;;5034614;28;20441;-67
2021/01/14 01:11:31;;;;;;;1.10;0.87;;;21.30;49.40;;;;;;5034794;28;20420;-67
2021/01/14 01:13:57;;;;;;;1.00;0.80;;;21.20;49.40;;;;;;5034496;28;20407;-67
2021/01/14 01:16:23;;;;;;;1.93;0.83;;;21.30;49.50;;;;;;5034712;28;20180;-67
2021/01/14 01:18:49;;;;;;;1.30;1.10;;;21.30;49.50;;;;;;5034618;28;20426;-67
2021/01/14 01:21:15;;;;;;;1.10;1.00;;;21.30;49.50;;;;;;5034307;28;20920;-66
2021/01/14 01:23:41;;;;;;;1.23;0.90;;;21.30;49.50;;;;;;5034262;28;20172;-66
2021/01/14 01:26:08;;;;;;;0.90;0.70;;;21.20;49.40;;;;;;5034234;28;20406;-67
2021/01/14 01:28:34;;;;;;;0.93;0.83;;;21.20;49.50;;;;;;5034356;28;20422;-67
2021/01/14 01:31:00;;;;;;;1.10;0.80;;;21.20;49.50;;;;;;5035234;28;20438;-67
2021/01/14 01:33:26;;;;;;;1.00;0.70;;;21.20;49.50;;;;;;5033859;28;20222;-67
2021/01/14 01:35:53;;;;;;;0.90;0.70;;;21.20;49.50;;;;;;5034306;28;20414;-67
2021/01/14 01:38:19;;;;;;;0.90;0.67;;;21.20;49.50;;;;;;5034028;28;20517;-67
2021/01/14 01:40:45;;;;;;;0.90;0.70;;;21.20;49.60;;;;;;5034262;28;20835;-66
2021/01/14 01:43:10;;;;;;;0.80;0.60;;;21.20;49.60;;;;;;5033778;28;20489;-67
2021/01/14 01:45:36;;;;;;;1.00;0.80;;;21.10;49.50;;;;;;5033823;28;20206;-67
2021/01/14 01:48:03;;;;;;;0.90;0.77;;;21.10;49.50;;;;;;5033997;28;20217;-66
2021/01/14 01:50:29;;;;;;;0.80;0.50;;;21.10;49.50;;;;;;5034023;28;20947;-67
2021/01/14 01:52:55;;;;;;;1.20;0.80;;;21.10;49.50;;;;;;5034003;28;20418;-67
2021/01/14 01:55:22;;;;;;;1.00;0.67;;;21.10;49.60;;;;;;5033717;28;20167;-67
2021/01/14 01:57:48;;;;;;;0.90;0.67;;;21.10;49.60;;;;;;5033501;28;20437;-66
2021/01/14 02:00:14;;;;;;;0.87;0.57;;;21.10;49.60;;;;;;5033854;28;20410;-67
2021/01/14 02:02:40;;;;;;;1.20;0.80;;;21.10;49.60;;;;;;5033412;28;20528;-67
2021/01/14 02:05:07;;;;;;;0.90;0.70;;;21.10;49.60;;;;;;5032208;28;20418;-67
2021/01/14 02:07:36;;;;;;;1.00;0.70;;;21.10;49.60;;;;;;5033606;28;20522;-67
2021/01/14 02:10:07;;;;;;;0.97;0.77;;;21.10;49.50;;;;;;5034250;28;20712;-67
2021/01/14 02:12:39;;;;;;;0.93;0.60;;;21.10;49.50;;;;;;5033673;28;20454;-67
2021/01/14 02:15:07;;;;;;;0.80;0.70;;;21.10;49.50;;;;;;5032144;28;20484;-67
2021/01/14 02:17:33;;;;;;;0.83;0.60;;;21.10;49.50;;;;;;5033529;28;20488;-67
2021/01/14 02:20:02;;;;;;;1.03;0.73;;;21.10;49.50;;;;;;5033568;28;20410;-67
2021/01/14 02:22:31;;;;;;;0.90;0.67;;;21.10;49.40;;;;;;5033049;28;20286;-67
2021/01/14 02:25:22;;;;;;;1.60;0.70;;;21.10;49.40;;;;;;5033520;28;20979;-67
2021/01/14 02:27:49;;;;;;;1.30;0.70;;;21.10;49.40;;;;;;5033294;28;20797;-67
2021/01/14 02:30:16;;;;;;;0.90;0.70;;;21.10;49.40;;;;;;5033172;28;20476;-67
2021/01/14 02:32:43;;;;;;;1.20;0.70;;;21.10;49.40;;;;;;5033006;28;20484;-67
2021/01/14 02:35:09;;;;;;;1.10;0.80;;;21.10;49.40;;;;;;5033292;28;20414;-66
2021/01/14 02:37:35;;;;;;;0.90;0.60;;;21.10;49.40;;;;;;5033197;28;20521;-67
2021/01/14 02:40:00;;;;;;;1.10;0.77;;;21.10;49.40;;;;;;5033315;28;20514;-66
2021/01/14 02:42:26;;;;;;;0.80;0.60;;;21.10;49.40;;;;;;5033515;28;20183;-67
2021/01/14 02:44:51;;;;;;;0.90;0.70;;;21.10;49.40;;;;;;5032469;28;20226;-67
2021/01/14 02:47:18;;;;;;;1.67;0.67;;;21.10;49.40;;;;;;5033093;28;20168;-66
2021/01/14 02:49:49;;;;;;;1.43;0.80;;;21.10;49.40;;;;;;5033129;28;20230;-66
2021/01/14 02:52:16;;;;;;;0.93;0.60;;;21.10;49.50;;;;;;5033269;28;20922;-67
2021/01/14 02:54:43;;;;;;;0.90;0.60;;;21.10;49.50;;;;;;5033203;28;20406;-67
2021/01/14 02:57:10;;;;;;;0.80;0.60;;;21.10;49.50;;;;;;5032893;28;20505;-66
2021/01/14 02:59:37;;;;;;;0.80;0.60;;;21.10;49.50;;;;;;5032791;28;20437;-66
2021/01/14 03:02:03;;;;;;;2.10;0.70;;;21.10;49.50;;;;;;5031443;28;20473;-66
2021/01/14 03:04:29;;;;;;;1.37;0.70;;;21.10;49.50;;;;;;5032795;28;20410;-67
2021/01/14 03:06:54;;;;;;;0.90;0.70;;;21.10;49.50;;;;;;5032530;28;20179;-66
2021/01/14 03:09:20;;;;;;;0.80;0.60;;;21.10;49.50;;;;;;5032725;28;20192;-67
2021/01/14 03:11:45;;;;;;;0.90;0.63;;;21.10;49.60;;;;;;5033116;28;20202;-67
2021/01/14 03:14:11;;;;;;;0.90;0.60;;;21.00;49.50;;;;;;5032537;28;20207;-66
2021/01/14 03:16:38;;;;;;;1.20;0.70;;;21.00;49.50;;;;;;5032820;28;20634;-67
2021/01/14 03:19:03;;;;;;;0.70;0.53;;;21.00;49.50;;;;;;5032911;28;20208;-66
2021/01/14 03:21:29;;;;;;;0.77;0.60;;;21.00;49.60;;;;;;5031342;28;20414;-67
2021/01/14 03:23:55;;;;;;;0.90;0.63;;;21.00;49.60;;;;;;5032897;28;20214;-67
2021/01/14 03:26:20;;;;;;;0.80;0.60;;;21.00;49.60;;;;;;5032896;28;20176;-67
2021/01/14 03:28:48;;;;;;;1.00;0.77;;;21.00;49.60;;;;;;5032528;28;20200;-65
2021/01/14 03:31:14;;;;;;;0.87;0.70;;;21.00;49.60;;;;;;5032830;28;20172;-67
2021/01/14 03:33:41;;;;;;;1.00;0.70;;;21.00;49.70;;;;;;5032484;28;20771;-67
2021/01/14 03:36:08;;;;;;;0.80;0.60;;;21.00;49.70;;;;;;5032432;28;20553;-67
2021/01/14 03:38:35;;;;;;;0.70;0.60;;;21.00;49.70;;;;;;5032687;28;20517;-67
2021/01/14 03:41:01;;;;;;;0.90;0.60;;;21.00;49.70;;;;;;5032482;28;20497;-67
2021/01/14 03:43:27;;;;;;;1.10;0.60;;;20.90;49.60;;;;;;5031375;28;20584;-67
2021/01/14 03:45:52;;;;;;;0.80;0.70;;;20.90;49.60;;;;;;5032423;28;20704;-67
2021/01/14 03:48:18;;;;;;;0.80;0.67;;;20.90;49.60;;;;;;5032359;28;20195;-67
2021/01/14 03:50:44;;;;;;;1.20;0.60;;;20.90;49.60;;;;;;5032424;28;20414;-66
2021/01/14 03:53:09;;;;;;;0.80;0.70;;;21.00;49.60;;;;;;5032598;28;20183;-66
2021/01/14 03:55:35;;;;;;;0.90;0.60;;;21.00;49.60;;;;;;5032340;28;20176;-67
2021/01/14 03:58:01;;;;;;;1.30;0.70;;;21.00;49.50;;;;;;5034288;28;20223;-67
2021/01/14 04:00:26;;;;;;;1.20;1.00;;;21.00;49.50;;;;;;5036137;28;20179;-67
2021/01/14 04:02:52;;;;;;;0.90;0.60;;;21.00;49.50;;;;;;5035562;28;20586;-67
2021/01/14 04:05:17;;;;;;;1.30;0.60;;;21.00;49.50;;;;;;5035759;28;20167;-67
2021/01/14 04:07:43;;;;;;;0.80;0.60;;;21.00;49.40;;;;;;5036029;28;20258;-67
2021/01/14 04:10:09;;;;;;;0.90;0.70;;;21.00;49.50;;;;;;5035732;28;20164;-67
2021/01/14 04:12:34;;;;;;;0.90;0.60;;;21.00;49.40;;;;;;5035649;28;20598;-67
2021/01/14 04:15:00;;;;;;;0.97;0.67;;;21.00;49.40;;;;;;5035605;28;20902;-67
2021/01/14 04:17:26;;;;;;;0.87;0.70;;;21.00;49.40;;;;;;5035453;28;20214;-67
2021/01/14 04:19:53;;;;;;;0.93;0.70;;;21.00;49.40;;;;;;5035527;28;20172;-67
2021/01/14 04:22:18;;;;;;;1.10;0.70;;;21.00;49.40;;;;;;5034107;28;21017;-67
2021/01/14 04:24:44;;;;;;;0.80;0.60;;;21.00;49.40;;;;;;5035412;28;20417;-67
2021/01/14 04:27:10;;;;;;;0.80;0.60;;;21.00;49.40;;;;;;5035395;28;20168;-67
2021/01/14 04:29:36;;;;;;;1.13;0.60;;;21.00;49.50;;;;;;5035479;28;20569;-67
2021/01/14 04:32:02;;;;;;;0.80;0.60;;;21.00;49.50;;;;;;5035474;28;20188;-67
2021/01/14 04:34:27;;;;;;;0.83;0.57;;;21.00;49.50;;;;;;5035466;28;20277;-66
2021/01/14 04:37:01;;;;;;;0.90;0.60;;;21.00;49.50;;;;;;5035158;28;20409;-66
2021/01/14 04:39:27;;;;;;;0.70;0.60;;;21.00;49.50;;;;;;5035134;28;20689;-66
2021/01/14 04:41:58;;;;;;;0.90;0.60;;;20.90;49.50;;;;;;5034992;28;20540;-67
2021/01/14 04:44:27;;;;;;;0.73;0.53;;;20.90;49.50;;;;;;5034999;28;20419;-67
2021/01/14 04:47:13;;;;;;;0.90;0.60;;;20.90;49.50;;;;;;5034903;28;20410;-67
2021/01/14 04:49:39;;;;;;;0.90;0.70;;;20.90;49.50;;;;;;5035254;28;20955;-67
2021/01/14 04:52:12;;;;;;;0.83;0.57;;;20.90;49.60;;;;;;5035118;28;20418;-67
2021/01/14 04:54:42;;;;;;;0.90;0.67;;;20.90;49.60;;;;;;5035106;28;20391;-67
2021/01/14 04:57:20;;;;;;;0.80;0.60;;;20.90;49.60;;;;;;5034781;28;20410;-67
2021/01/14 04:59:53;;;;;;;1.00;0.60;;;20.90;49.70;;;;;;5033501;28;20914;-66
2021/01/14 05:02:26;;;;;;;1.00;0.70;;;20.90;49.70;;;;;;5034700;28;20800;-67
2021/01/14 05:04:53;;;;;;;0.80;0.50;;;20.80;49.70;;;;;;5034457;28;20415;-66
2021/01/14 05:07:32;;;;;;;0.80;0.60;;;20.80;49.70;;;;;;5033283;28;20411;-66
2021/01/14 05:10:04;;;;;;;0.80;0.60;;;20.80;49.70;;;;;;5034722;28;20772;-67
2021/01/14 05:12:32;;;;;;;0.90;0.60;;;20.80;49.70;;;;;;5033293;28;20493;-67
2021/01/14 05:14:59;;;;;;;0.80;0.50;;;20.80;49.70;;;;;;5034424;28;20453;-67
2021/01/14 05:17:28;;;;;;;0.80;0.60;;;20.80;49.70;;;;;;5034634;28;20434;-67
2021/01/14 05:19:55;;;;;;;0.80;0.60;;;20.80;49.80;;;;;;5034344;28;20830;-66
2021/01/14 05:22:24;;;;;;;0.80;0.60;;;20.70;49.70;;;;;;5034268;28;20536;-67
2021/01/14 05:25:09;;;;;;;0.80;0.50;;;20.80;49.80;;;;;;5034225;28;20407;-67
2021/01/14 05:27:36;;;;;;;1.00;0.60;;;20.80;49.80;;;;;;5034063;28;20836;-67
2021/01/14 05:30:07;;;;;;;0.80;0.60;;;20.70;49.70;;;;;;5034093;28;20917;-67
2021/01/14 05:32:37;;;;;;;0.93;0.60;;;20.70;49.70;;;;;;5033977;28;20429;-67
2021/01/14 05:35:06;;;;;;;0.80;0.50;;;20.70;49.70;;;;;;5034289;28;20415;-67
2021/01/14 05:37:43;;;;;;;0.80;0.50;;;20.70;49.70;;;;;;5034145;28;20420;-66
2021/01/14 05:40:21;;;;;;;0.80;0.53;;;20.70;49.70;;;;;;5032717;28;20433;-67
2021/01/14 05:43:06;;;;;;;0.80;0.60;;;20.70;49.70;;;;;;5034140;28;20437;-67
2021/01/14 05:45:35;;;;;;;0.90;0.53;;;20.80;49.80;;;;;;5032639;28;20465;-67
2021/01/14 05:48:11;;;;;;;0.80;0.60;;;20.70;49.70;;;;;;5033762;28;20418;-67
2021/01/14 05:50:47;;;;;;;0.80;0.60;;;20.80;49.70;;;;;;5033731;28;20405;-67
2021/01/14 05:53:19;;;;;;;0.80;0.60;;;20.80;49.70;;;;;;5033816;28;20785;-66
2021/01/14 05:55:50;;;;;;;1.03;0.50;;;20.80;49.60;;;;;;5033700;28;20421;-66
2021/01/14 05:58:18;;;;;;;0.70;0.50;;;20.80;50.10;;;;;;5033552;28;20477;-67
2021/01/14 06:00:46;;;;;;;0.73;0.57;;;20.80;49.50;;;;;;5033869;28;20485;-73
2021/01/14 06:03:28;;;;;;;0.80;0.60;;;20.90;49.60;;;;;;5034025;28;20450;-67
2021/01/14 06:05:56;;;;;;;0.90;0.60;;;20.90;49.50;;;;;;5033452;28;20453;-66
2021/01/14 06:08:24;;;;;;;0.80;0.60;;;20.90;49.50;;;;;;5031461;28;20517;-68
2021/01/14 06:10:50;;;;;;;0.90;0.53;;;20.90;49.40;;;;;;5032799;28;20411;-66
2021/01/14 06:13:16;;;;;;;0.73;0.50;;;20.90;49.40;;;;;;5033392;28;20413;-67
2021/01/14 06:15:42;;;;;;;0.80;0.60;;;20.90;49.40;;;;;;5033318;28;20468;-66
2021/01/14 06:18:11;;;;;;;0.80;0.60;;;21.00;49.40;;;;;;5033291;28;20199;-66
2021/01/14 06:20:51;;;;;;;0.90;0.60;;;21.00;49.40;;;;;;5032564;28;20775;-66
2021/01/14 06:23:19;;;;;;;0.70;0.50;;;21.00;49.40;;;;;;5033433;28;20437;-66
2021/01/14 06:25:52;;;;;;;0.70;0.50;;;21.00;49.40;;;;;;5033468;28;20418;-66
2021/01/14 06:28:20;;;;;;;0.80;0.60;;;21.00;49.40;;;;;;5033426;28;20429;-67
2021/01/14 06:31:08;;;;;;;0.80;0.50;;;21.00;49.30;;;;;;5033104;28;20406;-67
2021/01/14 06:33:35;;;;;;;0.80;0.50;;;21.00;49.30;;;;;;5033089;28;20461;-67
2021/01/14 06:36:07;;;;;;;0.80;0.57;;;21.00;49.30;;;;;;5033055;28;20501;-67
2021/01/14 06:38:47;;;;;;;0.80;0.63;;;21.00;49.30;;;;;;5033070;28;20977;-67
2021/01/14 06:41:20;;;;;;;0.80;0.60;;;21.00;49.30;;;;;;5033063;28;20405;-67
2021/01/14 06:43:48;;;;;;;0.80;0.50;;;21.00;49.30;;;;;;5033284;28;20482;-67
2021/01/14 06:46:17;;;;;;;1.00;0.60;;;21.00;49.30;;;;;;5032970;28;20485;-67
2021/01/14 06:49:06;;;;;;;0.70;0.50;;;21.00;49.30;;;;;;5031529;28;20941;-67
2021/01/14 06:51:50;;;;;;;0.70;0.60;;;21.10;49.30;;;;;;5032897;28;20485;-66
2021/01/14 06:54:17;;;;;;;0.80;0.60;;;21.00;49.30;;;;;;5033452;28;20398;-67
2021/01/14 06:56:54;;;;;;;0.80;0.50;;;21.00;49.30;;;;;;5032956;28;20394;-67
2021/01/14 06:59:22;;;;;;;0.80;0.57;;;21.00;49.30;;;;;;5031405;28;20430;-67
2021/01/14 07:02:08;;;;;;;0.93;0.73;;;21.00;49.30;;;;;;5032822;28;20949;-67
2021/01/14 07:04:43;;;;;;;1.07;0.60;;;21.10;49.20;;;;;;5032743;28;20411;-67
2021/01/14 07:07:44;;;;;;;0.90;0.60;;;21.10;49.20;;;;;;5032771;28;20402;-66
2021/01/14 07:10:10;;;;;;;0.83;0.60;;;21.20;49.20;;;;;;5033084;28;20424;-66
2021/01/14 07:12:38;;;;;;;0.83;0.60;;;21.20;49.20;;;;;;5032698;28;20493;-66
2021/01/14 07:15:16;;;;;;;0.80;0.60;;;21.20;49.70;;;;;;5032638;28;20418;-66
2021/01/14 07:17:43;;;;;;;0.80;0.50;;;21.20;49.10;;;;;;5032593;28;20441;-67
2021/01/14 07:20:11;;;;;;;0.80;0.50;;;21.30;49.10;;;;;;5032941;28;20418;-66
2021/01/14 07:22:50;;;;;;;0.80;0.50;;;21.30;49.10;;;;;;5032534;28;20510;-67
2021/01/14 07:25:17;;;;;;;0.70;0.50;;;21.30;49.00;;;;;;5032942;28;20390;-67
2021/01/14 07:27:44;;;;;;;0.80;0.60;;;21.40;49.20;;;;;;5031293;28;20517;-67
2021/01/14 07:30:11;;;;;;;0.80;0.50;;;21.40;49.10;;;;;;5032051;28;20418;-66
2021/01/14 07:33:06;;;;;;;0.90;0.50;;;21.40;49.00;;;;;;5035701;28;20458;-66
2021/01/14 07:35:42;;;;;;;0.80;0.60;;;21.40;49.00;;;;;;5035029;28;20434;-67
2021/01/14 07:38:13;;;;;;;0.77;0.50;;;21.50;49.00;;;;;;5036155;28;20492;-66
2021/01/14 07:40:40;;;;;;;0.80;0.50;;;21.50;49.00;;;;;;5036484;28;20814;-66
2021/01/14 07:43:08;;;;;;;0.80;0.50;;;21.50;49.00;;;;;;5036179;28;20499;-66
2021/01/14 07:45:34;;;;;;;0.90;0.60;;;21.50;49.00;;;;;;5036134;28;20414;-66
2021/01/14 07:48:21;;;;;;;0.80;0.50;;;21.50;49.00;;;;;;5036074;28;20458;-66
2021/01/14 07:51:03;;;;;;;1.23;0.50;;;21.60;49.00;;;;;;5036276;28;20410;-67
2021/01/14 07:53:29;;;;;;;0.90;0.50;;;21.60;49.00;;;;;;5036353;28;20398;-67
2021/01/14 07:55:55;;;;;;;0.80;0.60;;;21.60;49.00;;;;;;5036255;28;20415;-66
2021/01/14 07:58:24;;;;;;;0.70;0.50;;;21.60;49.00;;;;;;5035704;28;20955;-67
2021/01/14 08:01:00;;;;;;;0.80;0.60;;;21.60;48.90;;;;;;5035886;28;20411;-66
2021/01/14 08:03:33;;;;;;;0.80;0.50;;;21.60;48.90;;;;;;5036096;28;20452;-65
2021/01/14 08:06:00;;;;;;;0.73;0.50;;;21.60;48.90;;;;;;5036131;28;20403;-66
2021/01/14 08:08:38;;;;;;;0.80;0.60;;;21.60;48.90;;;;;;5035588;28;20983;-66
2021/01/14 08:11:19;;;;;;;0.80;0.60;;;21.60;48.90;;;;;;5035721;28;20407;-66
2021/01/14 08:14:16;;;;;;;0.80;0.50;;;21.60;48.90;;;;;;5035746;28;20460;-67
2021/01/14 08:16:45;;;;;;;0.70;0.50;;;21.70;48.90;;;;;;5035967;28;20422;-66
2021/01/14 08:19:16;;;;;;;0.70;0.50;;;21.60;48.90;;;;;;5035775;28;20454;-66
2021/01/14 08:21:43;;;;;;;0.80;0.60;;;21.60;48.90;;;;;;5035427;28;20402;-65
2021/01/14 08:24:10;;;;;;;0.90;0.60;;;21.60;48.90;;;;;;5035746;28;20465;-66
2021/01/14 08:26:52;;;;;;;0.90;0.60;;;21.60;48.90;;;;;;5035648;28;20590;-67
2021/01/14 08:29:31;;;;;;;0.70;0.50;;;21.70;48.90;;;;;;5035295;28;20426;-65
2021/01/14 08:31:57;;;;;;;0.90;0.50;;;21.70;48.90;;;;;;5035040;28;20445;-66
2021/01/14 08:34:24;;;;;;;0.90;0.53;;;21.70;49.50;;;;;;5035516;28;20760;-66
2021/01/14 08:36:54;;;;;;;0.90;0.60;;;21.70;48.90;;;;;;5035459;28;20433;-66
2021/01/14 08:39:25;;;;;;;0.80;0.60;;;21.60;48.80;;;;;;5033813;28;21049;-66
2021/01/14 08:41:52;;;;;;;0.87;0.60;;;21.70;48.90;;;;;;5035057;28;20454;-65
2021/01/14 08:44:18;;;;;;;0.90;0.60;;;21.60;49.40;;;;;;5034113;28;20521;-66
2021/01/14 08:46:50;;;;;;;0.80;0.60;;;21.70;49.00;;;;;;5035278;28;20441;-66
2021/01/14 08:49:17;;;;;;;0.80;0.63;;;21.70;48.90;;;;;;5035302;28;20781;-66
2021/01/14 08:51:44;;;;;;;2.90;0.60;;;21.60;48.90;;;;;;5034885;28;20399;-66
2021/01/14 08:54:10;;;;;;;0.80;0.60;;;21.70;49.00;;;;;;5035114;28;20758;-66
2021/01/14 08:56:38;;;;;;;0.80;0.50;;;21.70;48.90;;;;;;5034833;28;20425;-66
2021/01/14 08:59:12;;;;;;;0.70;0.50;;;21.70;48.90;;;;;;5034684;28;20435;-66
2021/01/14 09:01:38;;;;;;;0.70;0.50;;;21.70;48.90;;;;;;5034945;28;20761;-66
2021/01/14 09:04:06;;;;;;;0.97;0.67;;;21.70;49.00;;;;;;5034734;28;20411;-66
2021/01/14 09:06:40;;;;;;;0.80;0.60;;;21.70;48.90;;;;;;5034587;28;20403;-66
2021/01/14 09:09:14;;;;;;;0.80;0.50;;;21.70;48.90;;;;;;5034832;28;20426;-66
2021/01/14 09:11:40;;;;;;;0.70;0.50;;;21.70;49.00;;;;;;5033306;28;20429;-66
2021/01/14 09:14:08;;;;;;;0.73;0.50;;;21.70;48.90;;;;;;5033173;28;20414;-66
2021/01/14 09:16:34;;;;;;;0.70;0.50;;;21.70;49.00;;;;;;5034719;28;20414;-66
2021/01/14 09:19:01;;;;;;;0.70;0.50;;;21.70;49.00;;;;;;5034420;28;20965;-66
2021/01/14 09:21:33;;;;;;;0.70;0.50;;;21.70;49.00;;;;;;5034524;28;20418;-66
2021/01/14 09:24:09;;;;;;;0.70;0.50;;;21.70;49.00;;;;;;5034640;28;20399;-66
2021/01/14 09:26:38;;;;;;;1.00;0.50;;;21.70;49.00;;;;;;5034546;28;20415;-66
2021/01/14 09:29:05;;;;;;;0.77;0.50;;;21.70;49.00;;;;;;5034217;28;20440;-66
2021/01/14 09:31:33;;;;;;;0.80;0.63;;;21.70;49.00;;;;;;5034168;28;20406;-66
2021/01/14 09:34:00;;;;;;;0.83;0.50;;;21.70;49.00;;;;;;5034235;28;20418;-66
2021/01/14 09:36:25;;;;;;;0.90;0.50;;;21.70;49.00;;;;;;5034148;28;20996;-65
2021/01/14 09:38:54;;;;;;;1.00;0.60;;;21.70;49.00;;;;;;5034106;28;20522;-66
2021/01/14 09:41:25;;;;;;;0.90;0.60;;;21.70;49.10;;;;;;5032646;28;20224;-66
2021/01/14 09:43:52;;;;;;;0.80;0.50;;;21.70;49.00;;;;;;5033915;28;20445;-66
2021/01/14 09:46:21;;;;;;;0.80;0.50;;;21.60;49.00;;;;;;5033909;28;20414;-66
2021/01/14 09:48:48;;;;;;;0.70;0.50;;;21.60;49.00;;;;;;5034037;28;20497;-65
2021/01/14 09:51:14;;;;;;;0.80;0.50;;;21.60;49.10;;;;;;5040926;22;21155;-66
2021/01/14 09:53:46;;;;;;;0.77;0.60;;;21.60;49.10;;;;;;5034043;28;20549;-66
2021/01/14 09:56:35;;;;;;;0.70;0.50;;;21.60;49.10;;;;;;5033662;28;20409;-66
2021/01/14 09:59:13;;;;;;;0.70;0.50;;;21.60;49.60;;;;;;5033178;28;20488;-66
2021/01/14 10:01:43;;;;;;;0.80;0.60;;;21.60;49.10;;;;;;5033407;28;20463;-66
2021/01/14 10:04:15;;;;;;;0.70;0.50;;;21.60;49.10;;;;;;5033477;28;20513;-66
2021/01/14 10:06:47;;;;;;;0.73;0.60;;;21.60;49.20;;;;;;5033774;28;20403;-64
2021/01/14 10:09:15;;;;;;;0.70;0.50;;;21.60;49.20;;;;;;5033747;28;20438;-65
2021/01/14 10:11:42;;;;;;;0.80;0.60;;;21.60;49.20;;;;;;5033536;28;20894;-66
2021/01/14 10:14:18;;;;;;;0.70;0.50;;;21.60;49.20;;;;;;5033408;28;20390;-66
2021/01/14 10:16:44;;;;;;;0.80;0.60;;;21.60;49.20;;;;;;5033749;28;20401;-66
2021/01/14 10:19:15;;;;;;;0.70;0.50;;;21.60;49.20;;;;;;5033284;28;20434;-66
2021/01/14 10:21:41;;;;;;;0.70;0.50;;;21.50;49.20;;;;;;5033611;28;20507;-58
2021/01/14 10:24:22;;;;;;;0.70;0.50;;;21.60;49.20;;;;;;5032838;28;20461;-65
2021/01/14 10:26:48;;;;;;;0.80;0.50;;;21.60;49.30;;;;;;5033282;28;20545;-64
2021/01/14 10:29:38;;;;;;;0.70;0.50;;;21.50;49.20;;;;;;5033231;28;20519;-65
2021/01/14 10:32:06;;;;;;;1.00;0.57;;;21.60;49.20;;;;;;5033361;28;20246;-66
2021/01/14 10:34:52;;;;;;;0.70;0.50;;;21.50;49.20;;;;;;5033388;28;20403;-65
2021/01/14 10:37:26;;;;;;;0.80;0.60;;;21.50;49.20;;;;;;5032961;28;20791;-66
2021/01/14 10:40:00;;;;;;;0.80;0.60;;;21.50;49.20;;;;;;5033068;28;20402;-66
2021/01/14 10:42:33;;;;;;;0.80;0.60;;;21.50;49.30;;;;;;5033063;28;20453;-65
2021/01/14 10:45:07;;;;;;;0.70;0.50;;;21.50;49.30;;;;;;5033627;28;20913;-66
2021/01/14 10:47:34;;;;;;;0.70;0.40;;;21.50;49.30;;;;;;5033205;28;20391;-65
2021/01/14 10:50:00;;;;;;;0.80;0.50;;;21.50;49.30;;;;;;5032903;28;20430;-66
2021/01/14 10:52:26;;;;;;;0.73;0.50;;;21.50;49.30;;;;;;5032996;28;20481;-64
2021/01/14 10:55:02;;;;;;;0.70;0.50;;;21.40;49.20;;;;;;5031674;28;20426;-64
2021/01/14 10:57:50;;;;;;;0.80;0.57;;;21.40;49.20;;;;;;5033103;28;20164;-65
2021/01/14 11:00:20;;;;;;;0.80;0.50;;;21.50;49.30;;;;;;5032832;28;20414;-64
2021/01/14 11:02:46;;;;;;;0.80;0.57;;;21.50;49.20;;;;;;5032869;28;20473;-66
2021/01/14 11:05:13;;;;;;;0.90;0.60;;;21.50;49.20;;;;;;5032754;28;20785;-67
2021/01/14 11:07:40;;;;;;;0.70;0.50;;;21.50;49.10;;;;;;5036419;28;20426;-63
2021/01/14 11:10:07;;;;;;;0.70;0.50;;;21.50;49.00;;;;;;5036812;28;20406;-67
2021/01/14 11:12:32;;;;;;;0.80;0.50;;;21.60;49.10;;;;;;5036830;28;20433;-67
2021/01/14 11:14:58;;;;;;;0.80;0.50;;;21.60;49.10;;;;;;5037003;28;20418;-67
2021/01/14 11:17:25;;;;;;;0.70;0.50;;;21.60;49.00;;;;;;5037150;28;20183;-67
2021/01/14 11:19:51;;;;;;;0.90;0.60;;;21.60;49.60;;;;;;5037660;28;20410;-66
2021/01/14 11:22:16;;;;;;;0.70;0.50;;;21.60;49.00;;;;;;5036789;28;20830;-67
2021/01/14 11:24:42;;;;;;;0.70;0.50;;;21.60;49.00;;;;;;5036587;28;20178;-67
2021/01/14 11:27:08;;;;;;;0.90;0.60;;;21.60;49.00;;;;;;5037132;28;20254;-66
2021/01/14 11:29:33;;;;;;;0.80;0.50;;;21.60;48.90;;;;;;5036480;28;20670;-67
2021/01/14 11:32:01;;;;;;;0.70;0.50;;;21.70;49.00;;;;;;5036485;28;20215;-67
2021/01/14 11:34:26;;;;;;;0.80;0.50;;;21.60;48.90;;;;;;5036755;28;20178;-70
2021/01/14 11:36:52;;;;;;;0.80;0.50;;;21.70;49.00;;;;;;5035079;28;20789;-69
2021/01/14 11:39:17;;;;;;;0.90;0.60;;;21.70;49.00;;;;;;5036277;28;20278;-70
2021/01/14 11:41:43;;;;;;;0.80;0.70;;;21.70;49.00;;;;;;5036152;28;20194;-68
2021/01/14 11:44:09;;;;;;;0.70;0.50;;;21.70;49.00;;;;;;5035520;28;20215;-72
2021/01/14 11:46:34;;;;;;;0.70;0.50;;;21.70;49.00;;;;;;5035485;28;20183;-67
2021/01/14 11:49:00;;;;;;;0.80;0.50;;;21.70;48.90;;;;;;5034886;28;20198;-70
2021/01/14 11:51:25;;;;;;;0.80;0.50;;;21.70;49.00;;;;;;5036240;28;20211;-68
2021/01/14 11:53:51;;;;;;;0.70;0.50;;;21.70;48.90;;;;;;5036335;28;20176;-71
2021/01/14 11:56:17;;;;;;;0.80;0.53;;;21.70;48.90;;;;;;5036023;28;20270;-69
2021/01/14 11:58:43;;;;;;;0.73;0.50;;;21.70;48.90;;;;;;5034598;28;20291;-69
2021/01/14 12:01:08;;;;;;;0.80;0.60;;;21.70;48.90;;;;;;5035950;28;20398;-68
2021/01/14 12:03:34;;;;;;;0.70;0.50;;;21.80;48.90;;;;;;5035736;28;20450;-67
2021/01/14 12:06:00;;;;;;;0.70;0.50;;;21.80;48.90;;;;;;5036085;28;20176;-67
2021/01/14 12:08:26;;;;;;;0.90;0.60;;;21.80;48.90;;;;;;5035453;28;20430;-67
2021/01/14 12:10:52;;;;;;;0.80;0.50;;;21.80;48.90;;;;;;5035796;28;20916;-69
2021/01/14 12:13:17;;;;;;;0.70;0.50;;;21.80;48.90;;;;;;5035978;28;20184;-66
2021/01/14 12:15:43;;;;;;;0.80;0.50;;;21.80;49.00;;;;;;5035636;28;20176;-69
2021/01/14 12:18:09;;;;;;;0.80;0.50;;;21.80;49.00;;;;;;5034636;28;20262;-68
2021/01/14 12:20:34;;;;;;;0.77;0.57;;;21.80;49.00;;;;;;5035480;28;20176;-67
2021/01/14 12:23:00;;;;;;;0.77;0.50;;;21.70;49.00;;;;;;5035386;28;20458;-68
2021/01/14 12:25:25;;;;;;;0.90;0.60;;;21.80;49.10;;;;;;5035702;28;20175;-68
2021/01/14 12:27:52;;;;;;;0.80;0.53;;;21.80;49.00;;;;;;5035303;28;20188;-69
2021/01/14 12:30:18;;;;;;;0.90;0.50;;;21.70;49.50;;;;;;5035373;28;20168;-68
2021/01/14 12:32:44;;;;;;;0.80;0.50;;;21.80;49.10;;;;;;5035209;28;20421;-68
2021/01/14 12:35:11;;;;;;;0.70;0.50;;;21.80;49.10;;;;;;5035832;28;20414;-68
2021/01/14 12:37:38;;;;;;;0.70;0.50;;;21.70;49.00;;;;;;5035551;28;20290;-67
2021/01/14 12:40:06;;;;;;;0.80;0.50;;;21.80;49.10;;;;;;5033984;28;20422;-68
2021/01/14 12:42:32;;;;;;;0.70;0.50;;;21.70;49.00;;;;;;5017616;28;21004;-68
2021/01/14 12:44:58;;;;;;;0.90;0.50;;;21.70;49.10;;;;;;5035617;28;20438;-68
2021/01/14 12:47:24;;;;;;;0.80;0.50;;;21.70;49.00;;;;;;5035036;28;20189;-66
2021/01/14 12:49:49;;;;;;;0.87;0.60;;;21.70;49.60;;;;;;5035403;28;20403;-68
2021/01/14 12:52:15;;;;;;;0.70;0.50;;;21.70;49.60;;;;;;5034025;28;20196;-68
2021/01/14 12:54:41;;;;;;;0.80;0.50;;;21.70;49.10;;;;;;5033693;28;20229;-66
2021/01/14 12:57:06;;;;;;;0.90;0.50;;;21.70;49.10;;;;;;5033762;28;20176;-68
2021/01/14 12:59:32;;;;;;;0.70;0.50;;;21.70;49.10;;;;;;5033458;28;20568;-69